sensor_id;sensor_type;location;lat;lon;timestamp;P1;durP1;ratioP1;P2;durP2;ratioP2
63874;SDS011;51595;24.180;-110.296;2023-09-19T00:00:34;3.80;;;1.40;;
63874;SDS011;51595;24.180;-110.296;2023-09-19T00:03:01;3.67;;;1.30;;
63874;SDS011;51595;24.180;-110.296;2023-09-19T00:05:28;6.78;;;1.27;;
63874;SDS011;51595;24.180;-110.296;2023-09-19T00:07:56;3.90;;;1.10;;
63874;SDS011;51595;24.180;-110.296;2023-09-19T00:10:26;4.95;;;1.20;;
63874;SDS011;51595;24.180;-110.296;2023-09-19T00:12:59;4.38;;;1.30;;
63874;SDS011;51595;24.180;-110.296;2023-09-19T00:15:31;2.70;;;1.30;;
63874;SDS011;51595;24.180;-110.296;2023-09-19T00:18:03;3.08;;;1.63;;
63874;SDS011;51595;24.180;-110.296;2023-09-19T00:20:35;2.53;;;0.98;;
63874;SDS011;51595;24.180;-110.296;2023-09-19T00:23:02;2.50;;;1.52;;
63874;SDS011;51595;24.180;-110.296;2023-09-19T00:25:36;2.55;;;1.30;;
63874;SDS011;51595;24.180;-110.296;2023-09-19T00:28:03;5.18;;;1.45;;
63874;SDS011;51595;24.180;-110.296;2023-09-19T00:30:32;2.75;;;1.20;;
63874;SDS011;51595;24.180;-110.296;2023-09-19T00:32:58;4.45;;;1.40;;
63874;SDS011;51595;24.180;-110.296;2023-09-19T00:35:26;2.63;;;1.15;;
63874;SDS011;51595;24.180;-110.296;2023-09-19T00:37:54;3.17;;;1.00;;
63874;SDS011;51595;24.180;-110.296;2023-09-19T00:40:30;2.17;;;1.25;;
63874;SDS011;51595;24.180;-110.296;2023-09-19T00:42:58;6.55;;;1.75;;
63874;SDS011;51595;24.180;-110.296;2023-09-19T00:45:25;3.65;;;1.20;;
63874;SDS011;51595;24.180;-110.296;2023-09-19T00:47:51;1.23;;;1.10;;
63874;SDS011;51595;24.180;-110.296;2023-09-19T00:50:19;2.10;;;1.02;;
63874;SDS011;51595;24.180;-110.296;2023-09-19T00:52:48;2.38;;;1.48;;
63874;SDS011;51595;24.180;-110.296;2023-09-19T00:55:16;2.33;;;1.23;;
63874;SDS011;51595;24.180;-110.296;2023-09-19T00:57:45;2.53;;;1.20;;
63874;SDS011;51595;24.180;-110.296;2023-09-19T01:00:13;4.72;;;1.65;;
63874;SDS011;51595;24.180;-110.296;2023-09-19T01:02:44;1.42;;;0.90;;
63874;SDS011;51595;24.180;-110.296;2023-09-19T01:05:11;10.80;;;1.33;;
63874;SDS011;51595;24.180;-110.296;2023-09-19T01:07:38;2.67;;;1.05;;
63874;SDS011;51595;24.180;-110.296;2023-09-19T01:10:11;4.45;;;1.90;;
63874;SDS011;51595;24.180;-110.296;2023-09-19T01:12:47;3.15;;;1.45;;
63874;SDS011;51595;24.180;-110.296;2023-09-19T01:18:18;1.83;;;1.23;;
63874;SDS011;51595;24.180;-110.296;2023-09-19T01:27:22;3.83;;;1.63;;
63874;SDS011;51595;24.180;-110.296;2023-09-19T01:29:41;7.22;;;1.10;;
63874;SDS011;51595;24.180;-110.296;2023-09-19T01:32:10;4.78;;;1.40;;
63874;SDS011;51595;24.180;-110.296;2023-09-19T01:34:57;4.35;;;1.50;;
63874;SDS011;51595;24.180;-110.296;2023-09-19T01:37:29;6.93;;;1.35;;
63874;SDS011;51595;24.180;-110.296;2023-09-19T01:40:03;3.42;;;1.35;;
63874;SDS011;51595;24.180;-110.296;2023-09-19T01:42:49;3.22;;;1.58;;
63874;SDS011;51595;24.180;-110.296;2023-09-19T01:51:43;2.80;;;1.13;;
63874;SDS011;51595;24.180;-110.296;2023-09-19T01:54:36;9.50;;;1.38;;
63874;SDS011;51595;24.180;-110.296;2023-09-19T01:59:52;4.75;;;1.70;;
63874;SDS011;51595;24.180;-110.296;2023-09-19T02:02:25;6.97;;;1.75;;
63874;SDS011;51595;24.180;-110.296;2023-09-19T02:04:54;2.83;;;1.27;;
63874;SDS011;51595;24.180;-110.296;2023-09-19T02:07:21;3.97;;;1.40;;
63874;SDS011;51595;24.180;-110.296;2023-09-19T02:09:48;2.58;;;1.02;;
63874;SDS011;51595;24.180;-110.296;2023-09-19T02:12:15;4.18;;;1.20;;
63874;SDS011;51595;24.180;-110.296;2023-09-19T02:14:42;1.33;;;1.10;;
63874;SDS011;51595;24.180;-110.296;2023-09-19T02:17:08;4.90;;;1.60;;
63874;SDS011;51595;24.180;-110.296;2023-09-19T02:19:37;2.78;;;1.35;;
63874;SDS011;51595;24.180;-110.296;2023-09-19T02:22:06;3.50;;;1.60;;
63874;SDS011;51595;24.180;-110.296;2023-09-19T02:24:33;5.18;;;2.05;;
63874;SDS011;51595;24.180;-110.296;2023-09-19T02:27:00;2.22;;;1.30;;
63874;SDS011;51595;24.180;-110.296;2023-09-19T02:29:29;6.22;;;1.27;;
63874;SDS011;51595;24.180;-110.296;2023-09-19T02:31:56;4.68;;;1.60;;
63874;SDS011;51595;24.180;-110.296;2023-09-19T02:34:22;3.42;;;1.52;;
63874;SDS011;51595;24.180;-110.296;2023-09-19T02:36:50;2.83;;;1.33;;
63874;SDS011;51595;24.180;-110.296;2023-09-19T02:39:21;7.32;;;1.80;;
63874;SDS011;51595;24.180;-110.296;2023-09-19T02:41:49;5.70;;;2.28;;
63874;SDS011;51595;24.180;-110.296;2023-09-19T02:44:15;9.57;;;1.85;;
63874;SDS011;51595;24.180;-110.296;2023-09-19T02:46:41;1.98;;;1.30;;
63874;SDS011;51595;24.180;-110.296;2023-09-19T02:49:08;4.90;;;1.38;;
63874;SDS011;51595;24.180;-110.296;2023-09-19T02:51:34;3.63;;;1.17;;
63874;SDS011;51595;24.180;-110.296;2023-09-19T02:54:01;8.40;;;1.38;;
63874;SDS011;51595;24.180;-110.296;2023-09-19T02:56:30;3.90;;;1.67;;
63874;SDS011;51595;24.180;-110.296;2023-09-19T02:58:57;5.45;;;1.40;;
63874;SDS011;51595;24.180;-110.296;2023-09-19T03:01:26;4.47;;;1.70;;
63874;SDS011;51595;24.180;-110.296;2023-09-19T03:03:53;3.63;;;1.00;;
63874;SDS011;51595;24.180;-110.296;2023-09-19T03:06:20;9.60;;;1.50;;
63874;SDS011;51595;24.180;-110.296;2023-09-19T03:08:47;7.57;;;1.60;;
63874;SDS011;51595;24.180;-110.296;2023-09-19T03:11:17;1.90;;;1.38;;
63874;SDS011;51595;24.180;-110.296;2023-09-19T03:13:52;4.57;;;1.70;;
63874;SDS011;51595;24.180;-110.296;2023-09-19T03:16:19;3.97;;;1.42;;
63874;SDS011;51595;24.180;-110.296;2023-09-19T03:18:48;4.22;;;1.95;;
63874;SDS011;51595;24.180;-110.296;2023-09-19T03:21:17;2.88;;;1.75;;
63874;SDS011;51595;24.180;-110.296;2023-09-19T03:23:44;6.32;;;1.60;;
63874;SDS011;51595;24.180;-110.296;2023-09-19T03:26:13;9.38;;;1.70;;
63874;SDS011;51595;24.180;-110.296;2023-09-19T03:28:46;3.85;;;1.40;;
63874;SDS011;51595;24.180;-110.296;2023-09-19T03:31:13;3.20;;;1.40;;
63874;SDS011;51595;24.180;-110.296;2023-09-19T03:33:39;4.03;;;1.00;;
63874;SDS011;51595;24.180;-110.296;2023-09-19T03:36:06;1.40;;;1.08;;
63874;SDS011;51595;24.180;-110.296;2023-09-19T03:38:32;3.80;;;1.30;;
63874;SDS011;51595;24.180;-110.296;2023-09-19T03:41:00;2.83;;;1.40;;
63874;SDS011;51595;24.180;-110.296;2023-09-19T03:43:27;5.90;;;1.75;;
63874;SDS011;51595;24.180;-110.296;2023-09-19T03:45:54;3.45;;;1.48;;
63874;SDS011;51595;24.180;-110.296;2023-09-19T03:48:20;8.93;;;1.60;;
63874;SDS011;51595;24.180;-110.296;2023-09-19T03:50:47;3.35;;;1.35;;
63874;SDS011;51595;24.180;-110.296;2023-09-19T03:53:14;3.33;;;1.42;;
63874;SDS011;51595;24.180;-110.296;2023-09-19T03:55:40;6.80;;;1.98;;
63874;SDS011;51595;24.180;-110.296;2023-09-19T03:58:06;2.58;;;1.33;;
63874;SDS011;51595;24.180;-110.296;2023-09-19T04:00:33;2.65;;;1.33;;
63874;SDS011;51595;24.180;-110.296;2023-09-19T04:02:59;4.35;;;1.60;;
63874;SDS011;51595;24.180;-110.296;2023-09-19T04:05:31;5.53;;;1.80;;
63874;SDS011;51595;24.180;-110.296;2023-09-19T04:07:58;9.82;;;2.25;;
63874;SDS011;51595;24.180;-110.296;2023-09-19T04:10:25;2.75;;;1.33;;
63874;SDS011;51595;24.180;-110.296;2023-09-19T04:12:52;4.03;;;1.25;;
63874;SDS011;51595;24.180;-110.296;2023-09-19T04:15:19;8.68;;;2.05;;
63874;SDS011;51595;24.180;-110.296;2023-09-19T04:17:49;4.40;;;1.98;;
63874;SDS011;51595;24.180;-110.296;2023-09-19T04:20:19;6.30;;;1.67;;
63874;SDS011;51595;24.180;-110.296;2023-09-19T04:22:48;7.30;;;1.58;;
63874;SDS011;51595;24.180;-110.296;2023-09-19T04:25:15;11.02;;;2.50;;
63874;SDS011;51595;24.180;-110.296;2023-09-19T04:27:41;6.90;;;1.98;;
63874;SDS011;51595;24.180;-110.296;2023-09-19T04:30:09;4.35;;;1.73;;
63874;SDS011;51595;24.180;-110.296;2023-09-19T04:32:40;7.45;;;1.98;;
63874;SDS011;51595;24.180;-110.296;2023-09-19T04:35:07;12.23;;;1.90;;
63874;SDS011;51595;24.180;-110.296;2023-09-19T04:37:36;3.90;;;1.70;;
63874;SDS011;51595;24.180;-110.296;2023-09-19T04:40:07;4.60;;;1.50;;
63874;SDS011;51595;24.180;-110.296;2023-09-19T04:42:43;4.72;;;1.80;;
63874;SDS011;51595;24.180;-110.296;2023-09-19T04:45:10;4.68;;;1.30;;
63874;SDS011;51595;24.180;-110.296;2023-09-19T04:47:37;5.00;;;1.70;;
63874;SDS011;51595;24.180;-110.296;2023-09-19T04:50:05;8.30;;;2.22;;
63874;SDS011;51595;24.180;-110.296;2023-09-19T04:52:33;11.63;;;2.30;;
63874;SDS011;51595;24.180;-110.296;2023-09-19T04:55:00;10.25;;;2.35;;
63874;SDS011;51595;24.180;-110.296;2023-09-19T04:57:26;11.95;;;4.05;;
63874;SDS011;51595;24.180;-110.296;2023-09-19T04:59:53;15.18;;;6.32;;
63874;SDS011;51595;24.180;-110.296;2023-09-19T05:02:20;15.27;;;5.57;;
63874;SDS011;51595;24.180;-110.296;2023-09-19T05:04:46;6.95;;;3.88;;
63874;SDS011;51595;24.180;-110.296;2023-09-19T05:07:13;11.65;;;3.80;;
63874;SDS011;51595;24.180;-110.296;2023-09-19T05:09:39;7.82;;;3.58;;
63874;SDS011;51595;24.180;-110.296;2023-09-19T05:12:07;5.65;;;2.72;;
63874;SDS011;51595;24.180;-110.296;2023-09-19T05:14:36;2.78;;;1.92;;
63874;SDS011;51595;24.180;-110.296;2023-09-19T05:17:02;5.88;;;1.67;;
63874;SDS011;51595;24.180;-110.296;2023-09-19T05:19:29;10.23;;;2.22;;
63874;SDS011;51595;24.180;-110.296;2023-09-19T05:21:55;4.95;;;1.38;;
63874;SDS011;51595;24.180;-110.296;2023-09-19T05:24:22;8.95;;;1.90;;
63874;SDS011;51595;24.180;-110.296;2023-09-19T05:26:49;4.63;;;1.90;;
63874;SDS011;51595;24.180;-110.296;2023-09-19T05:29:15;5.38;;;2.00;;
63874;SDS011;51595;24.180;-110.296;2023-09-19T05:31:41;9.38;;;2.33;;
63874;SDS011;51595;24.180;-110.296;2023-09-19T05:34:08;9.93;;;1.95;;
63874;SDS011;51595;24.180;-110.296;2023-09-19T05:36:35;4.70;;;1.73;;
63874;SDS011;51595;24.180;-110.296;2023-09-19T05:39:01;3.83;;;1.80;;
63874;SDS011;51595;24.180;-110.296;2023-09-19T05:41:28;10.60;;;1.70;;
63874;SDS011;51595;24.180;-110.296;2023-09-19T05:43:55;7.20;;;1.92;;
63874;SDS011;51595;24.180;-110.296;2023-09-19T05:46:22;13.65;;;2.50;;
63874;SDS011;51595;24.180;-110.296;2023-09-19T05:48:48;2.78;;;1.40;;
63874;SDS011;51595;24.180;-110.296;2023-09-19T05:51:15;12.90;;;2.17;;
63874;SDS011;51595;24.180;-110.296;2023-09-19T05:53:43;7.13;;;1.98;;
63874;SDS011;51595;24.180;-110.296;2023-09-19T05:56:09;5.88;;;2.25;;
63874;SDS011;51595;24.180;-110.296;2023-09-19T05:58:36;6.82;;;1.67;;
63874;SDS011;51595;24.180;-110.296;2023-09-19T06:01:04;8.15;;;2.03;;
63874;SDS011;51595;24.180;-110.296;2023-09-19T06:03:32;8.07;;;2.22;;
63874;SDS011;51595;24.180;-110.296;2023-09-19T06:06:01;7.05;;;1.58;;
63874;SDS011;51595;24.180;-110.296;2023-09-19T06:08:27;6.63;;;2.00;;
63874;SDS011;51595;24.180;-110.296;2023-09-19T06:10:56;4.78;;;1.92;;
63874;SDS011;51595;24.180;-110.296;2023-09-19T06:13:23;4.22;;;1.60;;
63874;SDS011;51595;24.180;-110.296;2023-09-19T06:15:52;10.02;;;2.03;;
63874;SDS011;51595;24.180;-110.296;2023-09-19T06:18:19;7.10;;;2.00;;
63874;SDS011;51595;24.180;-110.296;2023-09-19T06:20:46;7.25;;;1.63;;
63874;SDS011;51595;24.180;-110.296;2023-09-19T06:23:16;4.07;;;1.85;;
63874;SDS011;51595;24.180;-110.296;2023-09-19T06:25:46;8.68;;;2.65;;
63874;SDS011;51595;24.180;-110.296;2023-09-19T06:28:12;9.75;;;2.08;;
63874;SDS011;51595;24.180;-110.296;2023-09-19T06:30:40;2.22;;;1.75;;
63874;SDS011;51595;24.180;-110.296;2023-09-19T06:33:09;3.42;;;1.63;;
63874;SDS011;51595;24.180;-110.296;2023-09-19T06:35:38;7.32;;;1.70;;
63874;SDS011;51595;24.180;-110.296;2023-09-19T06:38:04;5.97;;;1.65;;
63874;SDS011;51595;24.180;-110.296;2023-09-19T06:40:31;6.45;;;1.85;;
63874;SDS011;51595;24.180;-110.296;2023-09-19T06:42:59;4.28;;;2.20;;
63874;SDS011;51595;24.180;-110.296;2023-09-19T06:45:27;7.43;;;2.00;;
63874;SDS011;51595;24.180;-110.296;2023-09-19T06:47:54;4.60;;;1.85;;
63874;SDS011;51595;24.180;-110.296;2023-09-19T06:50:23;5.05;;;2.20;;
63874;SDS011;51595;24.180;-110.296;2023-09-19T06:52:51;19.10;;;2.85;;
63874;SDS011;51595;24.180;-110.296;2023-09-19T06:55:19;14.52;;;2.55;;
63874;SDS011;51595;24.180;-110.296;2023-09-19T06:57:49;3.22;;;2.05;;
63874;SDS011;51595;24.180;-110.296;2023-09-19T07:00:15;5.00;;;1.80;;
63874;SDS011;51595;24.180;-110.296;2023-09-19T07:02:56;14.98;;;2.83;;
63874;SDS011;51595;24.180;-110.296;2023-09-19T07:05:29;8.90;;;1.73;;
63874;SDS011;51595;24.180;-110.296;2023-09-19T07:07:56;4.13;;;2.10;;
63874;SDS011;51595;24.180;-110.296;2023-09-19T07:10:24;3.80;;;1.98;;
63874;SDS011;51595;24.180;-110.296;2023-09-19T07:13:05;9.23;;;2.42;;
63874;SDS011;51595;24.180;-110.296;2023-09-19T07:15:34;4.88;;;2.30;;
63874;SDS011;51595;24.180;-110.296;2023-09-19T07:18:02;6.32;;;2.05;;
63874;SDS011;51595;24.180;-110.296;2023-09-19T07:20:28;3.63;;;1.77;;
63874;SDS011;51595;24.180;-110.296;2023-09-19T07:22:56;9.35;;;2.08;;
63874;SDS011;51595;24.180;-110.296;2023-09-19T07:25:29;5.05;;;2.08;;
63874;SDS011;51595;24.180;-110.296;2023-09-19T07:27:56;9.77;;;2.65;;
63874;SDS011;51595;24.180;-110.296;2023-09-19T07:30:26;11.77;;;2.72;;
63874;SDS011;51595;24.180;-110.296;2023-09-19T07:32:53;4.43;;;2.33;;
63874;SDS011;51595;24.180;-110.296;2023-09-19T07:35:20;10.93;;;2.38;;
63874;SDS011;51595;24.180;-110.296;2023-09-19T07:37:46;7.68;;;2.15;;
63874;SDS011;51595;24.180;-110.296;2023-09-19T07:40:21;9.98;;;2.90;;
63874;SDS011;51595;24.180;-110.296;2023-09-19T07:42:49;4.72;;;2.30;;
63874;SDS011;51595;24.180;-110.296;2023-09-19T07:45:15;4.93;;;2.03;;
63874;SDS011;51595;24.180;-110.296;2023-09-19T07:47:46;6.75;;;2.33;;
63874;SDS011;51595;24.180;-110.296;2023-09-19T07:50:13;10.40;;;2.33;;
63874;SDS011;51595;24.180;-110.296;2023-09-19T07:52:41;5.10;;;2.25;;
63874;SDS011;51595;24.180;-110.296;2023-09-19T07:55:11;3.30;;;1.65;;
63874;SDS011;51595;24.180;-110.296;2023-09-19T07:57:43;2.78;;;1.50;;
63874;SDS011;51595;24.180;-110.296;2023-09-19T08:00:09;6.15;;;2.47;;
63874;SDS011;51595;24.180;-110.296;2023-09-19T08:02:37;10.57;;;2.47;;
63874;SDS011;51595;24.180;-110.296;2023-09-19T08:05:04;6.40;;;2.10;;
63874;SDS011;51595;24.180;-110.296;2023-09-19T08:07:38;6.45;;;1.92;;
63874;SDS011;51595;24.180;-110.296;2023-09-19T08:10:06;10.50;;;2.40;;
63874;SDS011;51595;24.180;-110.296;2023-09-19T08:12:34;7.55;;;2.00;;
63874;SDS011;51595;24.180;-110.296;2023-09-19T08:15:04;14.57;;;3.05;;
63874;SDS011;51595;24.180;-110.296;2023-09-19T08:17:34;10.45;;;2.28;;
63874;SDS011;51595;24.180;-110.296;2023-09-19T08:20:01;6.30;;;2.50;;
63874;SDS011;51595;24.180;-110.296;2023-09-19T08:22:30;17.27;;;2.95;;
63874;SDS011;51595;24.180;-110.296;2023-09-19T08:24:57;3.97;;;2.15;;
63874;SDS011;51595;24.180;-110.296;2023-09-19T08:27:24;4.15;;;1.95;;
63874;SDS011;51595;24.180;-110.296;2023-09-19T08:29:57;10.02;;;2.40;;
63874;SDS011;51595;24.180;-110.296;2023-09-19T08:32:23;7.53;;;2.30;;
63874;SDS011;51595;24.180;-110.296;2023-09-19T08:34:51;3.70;;;2.20;;
63874;SDS011;51595;24.180;-110.296;2023-09-19T08:37:18;6.47;;;1.98;;
63874;SDS011;51595;24.180;-110.296;2023-09-19T08:39:44;9.57;;;2.53;;
63874;SDS011;51595;24.180;-110.296;2023-09-19T08:42:11;5.63;;;2.10;;
63874;SDS011;51595;24.180;-110.296;2023-09-19T08:44:38;7.57;;;2.15;;
63874;SDS011;51595;24.180;-110.296;2023-09-19T08:47:15;9.88;;;1.77;;
63874;SDS011;51595;24.180;-110.296;2023-09-19T08:49:53;10.27;;;2.15;;
63874;SDS011;51595;24.180;-110.296;2023-09-19T08:55:06;6.10;;;2.27;;
63874;SDS011;51595;24.180;-110.296;2023-09-19T08:57:35;7.95;;;2.42;;
63874;SDS011;51595;24.180;-110.296;2023-09-19T09:00:07;7.53;;;2.58;;
63874;SDS011;51595;24.180;-110.296;2023-09-19T09:02:38;8.13;;;2.17;;
63874;SDS011;51595;24.180;-110.296;2023-09-19T09:05:07;5.78;;;2.30;;
63874;SDS011;51595;24.180;-110.296;2023-09-19T09:07:39;6.88;;;1.83;;
63874;SDS011;51595;24.180;-110.296;2023-09-19T09:10:06;6.10;;;2.17;;
63874;SDS011;51595;24.180;-110.296;2023-09-19T09:12:34;5.97;;;2.40;;
63874;SDS011;51595;24.180;-110.296;2023-09-19T09:15:02;9.68;;;2.47;;
63874;SDS011;51595;24.180;-110.296;2023-09-19T09:17:29;4.85;;;2.40;;
63874;SDS011;51595;24.180;-110.296;2023-09-19T09:19:56;9.75;;;2.25;;
63874;SDS011;51595;24.180;-110.296;2023-09-19T09:22:22;9.82;;;2.40;;
63874;SDS011;51595;24.180;-110.296;2023-09-19T09:24:53;4.10;;;2.25;;
63874;SDS011;51595;24.180;-110.296;2023-09-19T09:27:23;10.13;;;1.88;;
63874;SDS011;51595;24.180;-110.296;2023-09-19T09:29:50;6.00;;;2.25;;
63874;SDS011;51595;24.180;-110.296;2023-09-19T09:32:27;6.43;;;2.03;;
63874;SDS011;51595;24.180;-110.296;2023-09-19T09:34:55;6.85;;;2.63;;
63874;SDS011;51595;24.180;-110.296;2023-09-19T09:37:23;7.80;;;2.28;;
63874;SDS011;51595;24.180;-110.296;2023-09-19T09:39:55;9.15;;;2.28;;
63874;SDS011;51595;24.180;-110.296;2023-09-19T09:42:44;13.73;;;2.45;;
63874;SDS011;51595;24.180;-110.296;2023-09-19T09:45:18;6.55;;;2.28;;
63874;SDS011;51595;24.180;-110.296;2023-09-19T09:47:54;7.28;;;2.05;;
63874;SDS011;51595;24.180;-110.296;2023-09-19T09:56:01;8.70;;;2.38;;
63874;SDS011;51595;24.180;-110.296;2023-09-19T09:58:34;3.50;;;1.85;;
63874;SDS011;51595;24.180;-110.296;2023-09-19T10:01:03;4.53;;;1.80;;
63874;SDS011;51595;24.180;-110.296;2023-09-19T10:03:40;5.68;;;1.95;;
63874;SDS011;51595;24.180;-110.296;2023-09-19T10:06:13;2.20;;;1.25;;
63874;SDS011;51595;24.180;-110.296;2023-09-19T10:11:37;7.03;;;2.20;;
63874;SDS011;51595;24.180;-110.296;2023-09-19T10:14:09;11.10;;;2.40;;
63874;SDS011;51595;24.180;-110.296;2023-09-19T10:16:50;2.22;;;1.42;;
63874;SDS011;51595;24.180;-110.296;2023-09-19T10:22:30;7.60;;;2.35;;
63874;SDS011;51595;24.180;-110.296;2023-09-19T10:25:00;5.30;;;1.60;;
63874;SDS011;51595;24.180;-110.296;2023-09-19T10:27:32;2.78;;;1.65;;
63874;SDS011;51595;24.180;-110.296;2023-09-19T10:30:04;8.20;;;2.13;;
63874;SDS011;51595;24.180;-110.296;2023-09-19T10:32:35;4.20;;;1.67;;
63874;SDS011;51595;24.180;-110.296;2023-09-19T10:35:06;6.80;;;1.73;;
63874;SDS011;51595;24.180;-110.296;2023-09-19T10:37:33;4.60;;;1.70;;
63874;SDS011;51595;24.180;-110.296;2023-09-19T10:40:03;10.55;;;2.13;;
63874;SDS011;51595;24.180;-110.296;2023-09-19T10:42:34;7.35;;;2.13;;
63874;SDS011;51595;24.180;-110.296;2023-09-19T10:45:07;3.88;;;1.65;;
63874;SDS011;51595;24.180;-110.296;2023-09-19T10:47:38;3.58;;;1.83;;
63874;SDS011;51595;24.180;-110.296;2023-09-19T10:50:06;6.57;;;2.03;;
63874;SDS011;51595;24.180;-110.296;2023-09-19T10:52:39;3.53;;;1.42;;
63874;SDS011;51595;24.180;-110.296;2023-09-19T10:55:08;4.05;;;1.40;;
63874;SDS011;51595;24.180;-110.296;2023-09-19T10:57:44;4.50;;;1.70;;
63874;SDS011;51595;24.180;-110.296;2023-09-19T11:00:12;13.05;;;2.83;;
63874;SDS011;51595;24.180;-110.296;2023-09-19T11:06:00;6.68;;;2.15;;
63874;SDS011;51595;24.180;-110.296;2023-09-19T11:14:29;9.32;;;1.85;;
63874;SDS011;51595;24.180;-110.296;2023-09-19T11:30:52;4.47;;;1.85;;
63874;SDS011;51595;24.180;-110.296;2023-09-19T11:33:20;13.43;;;1.88;;
63874;SDS011;51595;24.180;-110.296;2023-09-19T11:46:51;12.95;;;2.42;;
63874;SDS011;51595;24.180;-110.296;2023-09-19T11:49:19;7.22;;;2.20;;
63874;SDS011;51595;24.180;-110.296;2023-09-19T11:51:57;4.20;;;1.70;;
63874;SDS011;51595;24.180;-110.296;2023-09-19T11:54:26;5.88;;;1.80;;
63874;SDS011;51595;24.180;-110.296;2023-09-19T11:56:57;4.53;;;2.05;;
63874;SDS011;51595;24.180;-110.296;2023-09-19T11:59:28;4.38;;;1.70;;
63874;SDS011;51595;24.180;-110.296;2023-09-19T12:01:56;7.57;;;1.70;;
63874;SDS011;51595;24.180;-110.296;2023-09-19T12:04:39;6.07;;;1.70;;
63874;SDS011;51595;24.180;-110.296;2023-09-19T12:07:09;4.43;;;1.80;;
63874;SDS011;51595;24.180;-110.296;2023-09-19T12:09:44;3.10;;;1.67;;
63874;SDS011;51595;24.180;-110.296;2023-09-19T12:12:24;5.40;;;2.00;;
63874;SDS011;51595;24.180;-110.296;2023-09-19T12:14:52;7.65;;;2.17;;
63874;SDS011;51595;24.180;-110.296;2023-09-19T12:17:20;4.70;;;2.08;;
63874;SDS011;51595;24.180;-110.296;2023-09-19T12:19:53;7.18;;;1.92;;
63874;SDS011;51595;24.180;-110.296;2023-09-19T12:22:21;10.98;;;1.95;;
63874;SDS011;51595;24.180;-110.296;2023-09-19T12:24:48;4.32;;;1.73;;
63874;SDS011;51595;24.180;-110.296;2023-09-19T12:27:16;5.38;;;1.85;;
63874;SDS011;51595;24.180;-110.296;2023-09-19T12:29:46;6.47;;;2.30;;
63874;SDS011;51595;24.180;-110.296;2023-09-19T12:32:36;7.30;;;2.13;;
63874;SDS011;51595;24.180;-110.296;2023-09-19T12:35:08;7.50;;;2.42;;
63874;SDS011;51595;24.180;-110.296;2023-09-19T12:37:44;2.90;;;1.63;;
63874;SDS011;51595;24.180;-110.296;2023-09-19T12:40:13;4.82;;;1.35;;
63874;SDS011;51595;24.180;-110.296;2023-09-19T12:42:43;2.92;;;1.40;;
63874;SDS011;51595;24.180;-110.296;2023-09-19T12:45:10;2.28;;;1.60;;
63874;SDS011;51595;24.180;-110.296;2023-09-19T12:47:39;4.45;;;1.50;;
63874;SDS011;51595;24.180;-110.296;2023-09-19T12:50:12;4.18;;;1.55;;
63874;SDS011;51595;24.180;-110.296;2023-09-19T12:52:51;7.75;;;1.30;;
63874;SDS011;51595;24.180;-110.296;2023-09-19T13:00:58;6.65;;;1.92;;
63874;SDS011;51595;24.180;-110.296;2023-09-19T13:03:24;3.95;;;1.58;;
63874;SDS011;51595;24.180;-110.296;2023-09-19T13:05:52;3.70;;;1.60;;
63874;SDS011;51595;24.180;-110.296;2023-09-19T13:08:26;6.55;;;1.17;;
63874;SDS011;51595;24.180;-110.296;2023-09-19T13:11:00;5.97;;;1.55;;
63874;SDS011;51595;24.180;-110.296;2023-09-19T13:13:44;2.95;;;1.80;;
63874;SDS011;51595;24.180;-110.296;2023-09-19T13:16:19;6.90;;;1.60;;
63874;SDS011;51595;24.180;-110.296;2023-09-19T13:18:53;4.75;;;1.92;;
63874;SDS011;51595;24.180;-110.296;2023-09-19T13:24:18;6.68;;;2.00;;
63874;SDS011;51595;24.180;-110.296;2023-09-19T13:26:51;2.70;;;1.40;;
63874;SDS011;51595;24.180;-110.296;2023-09-19T13:29:17;6.28;;;2.00;;
63874;SDS011;51595;24.180;-110.296;2023-09-19T13:31:47;9.80;;;2.42;;
63874;SDS011;51595;24.180;-110.296;2023-09-19T13:34:15;7.50;;;2.22;;
63874;SDS011;51595;24.180;-110.296;2023-09-19T13:36:43;2.55;;;1.73;;
63874;SDS011;51595;24.180;-110.296;2023-09-19T13:39:09;4.75;;;1.55;;
63874;SDS011;51595;24.180;-110.296;2023-09-19T13:41:38;2.63;;;1.58;;
63874;SDS011;51595;24.180;-110.296;2023-09-19T13:44:05;1.10;;;1.00;;
63874;SDS011;51595;24.180;-110.296;2023-09-19T13:46:31;8.75;;;1.92;;
63874;SDS011;51595;24.180;-110.296;2023-09-19T13:49:00;10.50;;;2.10;;
63874;SDS011;51595;24.180;-110.296;2023-09-19T13:51:31;3.00;;;1.70;;
63874;SDS011;51595;24.180;-110.296;2023-09-19T13:53:58;3.20;;;1.50;;
63874;SDS011;51595;24.180;-110.296;2023-09-19T13:56:27;4.70;;;1.02;;
63874;SDS011;51595;24.180;-110.296;2023-09-19T13:58:55;7.43;;;2.28;;
63874;SDS011;51595;24.180;-110.296;2023-09-19T14:01:21;7.13;;;1.60;;
63874;SDS011;51595;24.180;-110.296;2023-09-19T14:03:48;4.25;;;1.75;;
63874;SDS011;51595;24.180;-110.296;2023-09-19T14:06:16;2.72;;;1.48;;
63874;SDS011;51595;24.180;-110.296;2023-09-19T14:08:44;4.50;;;1.63;;
63874;SDS011;51595;24.180;-110.296;2023-09-19T14:11:15;4.13;;;2.03;;
63874;SDS011;51595;24.180;-110.296;2023-09-19T14:13:41;4.93;;;2.15;;
63874;SDS011;51595;24.180;-110.296;2023-09-19T14:16:14;18.77;;;2.38;;
63874;SDS011;51595;24.180;-110.296;2023-09-19T14:18:41;5.30;;;1.88;;
63874;SDS011;51595;24.180;-110.296;2023-09-19T14:21:07;4.95;;;2.03;;
63874;SDS011;51595;24.180;-110.296;2023-09-19T14:23:38;6.82;;;1.90;;
63874;SDS011;51595;24.180;-110.296;2023-09-19T14:26:06;4.28;;;1.98;;
63874;SDS011;51595;24.180;-110.296;2023-09-19T14:28:33;9.95;;;1.80;;
63874;SDS011;51595;24.180;-110.296;2023-09-19T14:31:09;7.63;;;2.45;;
63874;SDS011;51595;24.180;-110.296;2023-09-19T14:33:37;5.22;;;1.60;;
63874;SDS011;51595;24.180;-110.296;2023-09-19T14:36:04;7.40;;;2.22;;
63874;SDS011;51595;24.180;-110.296;2023-09-19T14:38:35;4.63;;;1.85;;
63874;SDS011;51595;24.180;-110.296;2023-09-19T14:41:04;9.75;;;1.80;;
63874;SDS011;51595;24.180;-110.296;2023-09-19T14:43:31;10.13;;;2.22;;
63874;SDS011;51595;24.180;-110.296;2023-09-19T14:46:07;9.30;;;2.33;;
63874;SDS011;51595;24.180;-110.296;2023-09-19T14:48:35;12.82;;;1.92;;
63874;SDS011;51595;24.180;-110.296;2023-09-19T14:51:02;4.82;;;1.90;;
63874;SDS011;51595;24.180;-110.296;2023-09-19T14:53:30;3.28;;;1.67;;
63874;SDS011;51595;24.180;-110.296;2023-09-19T14:55:59;10.80;;;2.13;;
63874;SDS011;51595;24.180;-110.296;2023-09-19T14:58:28;2.33;;;1.40;;
63874;SDS011;51595;24.180;-110.296;2023-09-19T15:01:05;9.40;;;2.45;;
63874;SDS011;51595;24.180;-110.296;2023-09-19T15:03:33;4.18;;;1.88;;
63874;SDS011;51595;24.180;-110.296;2023-09-19T15:06:04;14.07;;;2.90;;
63874;SDS011;51595;24.180;-110.296;2023-09-19T15:08:32;4.88;;;1.95;;
63874;SDS011;51595;24.180;-110.296;2023-09-19T15:11:09;3.85;;;2.03;;
63874;SDS011;51595;24.180;-110.296;2023-09-19T15:13:37;14.95;;;2.03;;
63874;SDS011;51595;24.180;-110.296;2023-09-19T15:16:05;4.20;;;1.77;;
63874;SDS011;51595;24.180;-110.296;2023-09-19T15:18:36;13.23;;;2.00;;
63874;SDS011;51595;24.180;-110.296;2023-09-19T15:21:04;11.38;;;2.10;;
63874;SDS011;51595;24.180;-110.296;2023-09-19T15:23:31;8.43;;;2.00;;
63874;SDS011;51595;24.180;-110.296;2023-09-19T15:26:03;9.93;;;2.13;;
63874;SDS011;51595;24.180;-110.296;2023-09-19T15:28:30;8.73;;;2.05;;
63874;SDS011;51595;24.180;-110.296;2023-09-19T15:30:59;12.13;;;2.53;;
63874;SDS011;51595;24.180;-110.296;2023-09-19T15:33:27;4.13;;;1.88;;